Time;durP1;ratioP1;P1;durP2;ratioP2;P2;SDS_P1;SDS_P2;PMS_P1;PMS_P2;Temp;Humidity;BMP_temperature;BMP_pressure;BME280_temperature;BME280_humidity;BME280_pressure;Samples;Min_cycle;Max_cycle;Signal;HPM_P1;HPM_P2
2022/12/17 13:06:39;;;;;;;1.12;1.08;;;-1.20;99.90;;;;;;4390209;32;20104;-77
2022/12/17 13:09:25;;;;;;;1.48;1.37;;;-1.30;99.90;;;;;;4391817;32;20078;-78
2022/12/17 13:12:03;;;;;;;0.52;0.52;;;-1.40;99.90;;;;;;4376192;32;20089;-79
2022/12/17 13:14:49;;;;;;;0.60;0.60;;;-1.30;99.90;;;;;;4387056;32;20097;-79
2022/12/17 13:17:17;;;;;;;3.45;1.90;;;-1.30;99.90;;;;;;4388358;32;20077;-76
2022/12/17 13:19:59;;;;;;;1.45;1.35;;;-1.40;99.90;;;;;;4402574;32;20073;-76
2022/12/17 13:22:28;;;;;;;0.90;0.90;;;-1.50;99.90;;;;;;4400155;32;20140;-76
2022/12/17 13:25:08;;;;;;;1.40;1.30;;;-1.40;99.90;;;;;;4400733;32;20061;-75
2022/12/17 13:27:35;;;;;;;12.10;1.90;;;-1.40;99.90;;;;;;4383563;32;20090;-78
2022/12/17 13:30:20;;;;;;;0.40;0.40;;;-1.50;99.90;;;;;;4380456;32;20094;-81
2022/12/17 13:33:21;;;;;;;0.85;0.85;;;-1.70;99.90;;;;;;4390350;32;20077;-76
2022/12/17 13:35:54;;;;;;;;;;;-1.70;99.90;;;;;;4387310;32;20097;-77
2022/12/17 13:38:48;;;;;;;1.23;1.05;;;-1.90;99.90;;;;;;4399679;32;19966;-76
2022/12/17 13:41:16;;;;;;;0.62;0.62;;;-1.80;99.90;;;;;;4381225;32;20347;-79
2022/12/17 13:43:47;;;;;;;1.02;1.02;;;-1.80;99.90;;;;;;4387957;32;20125;-79
2022/12/17 13:46:34;;;;;;;2.90;1.92;;;-1.90;99.90;;;;;;4400871;32;20062;-76
2022/12/17 13:49:03;;;;;;;0.80;0.80;;;-1.80;99.90;;;;;;4382968;32;20528;-78
2022/12/17 13:51:32;;;;;;;1.85;1.75;;;-1.80;99.90;;;;;;4402477;32;20099;-76
2022/12/17 13:54:02;;;;;;;1.10;1.07;;;-1.80;99.90;;;;;;4398685;32;20086;-77
2022/12/17 13:56:31;;;;;;;0.40;0.40;;;-1.70;99.90;;;;;;4401107;32;20111;-77
2022/12/17 13:59:01;;;;;;;1.23;1.12;;;-1.60;99.90;;;;;;4384954;32;20262;-79
2022/12/17 14:01:27;;;;;;;14.30;2.33;;;-1.70;99.90;;;;;;4380104;32;20565;-77
2022/12/17 14:03:57;;;;;;;5.25;2.33;;;-1.70;99.90;;;;;;4396653;32;20082;-77
2022/12/17 14:06:27;;;;;;;1.23;1.12;;;-1.80;99.90;;;;;;4396569;32;20128;-78
2022/12/17 14:08:55;;;;;;;1.55;1.45;;;-1.70;99.90;;;;;;4399241;32;20054;-78
2022/12/17 14:12:22;;;;;;;0.82;0.82;;;-1.70;99.90;;;;;;4387991;32;20078;-77
2022/12/17 14:14:19;;;;;;;0.80;0.80;;;-1.60;99.90;;;;;;4375562;32;20586;-79
2022/12/17 14:16:45;;;;;;;0.60;0.60;;;-1.50;99.90;;;;;;4402359;32;20077;-79
2022/12/17 14:19:10;;;;;;;0.85;0.85;;;-1.60;99.90;;;;;;4402278;32;20069;-77
2022/12/17 14:21:36;;;;;;;2.22;2.03;;;-1.60;99.90;;;;;;4403467;32;20093;-77
2022/12/17 14:24:02;;;;;;;2.12;1.83;;;-1.60;99.90;;;;;;4402713;32;20399;-76
2022/12/17 14:26:28;;;;;;;0.82;0.82;;;-1.60;99.90;;;;;;4402615;32;20128;-76
2022/12/17 14:28:54;;;;;;;5.62;1.73;;;-1.70;99.90;;;;;;4386367;32;20081;-79
2022/12/17 14:31:23;;;;;;;2.75;1.23;;;-1.70;99.90;;;;;;4382544;32;20077;-77
2022/12/17 14:34:10;;;;;;;0.90;0.77;;;-1.70;99.90;;;;;;4402908;32;20592;-75
2022/12/17 14:36:39;;;;;;;3.60;2.70;;;-1.60;99.90;;;;;;4388118;32;20201;-76
2022/12/17 14:39:18;;;;;;;1.70;1.58;;;-1.70;99.90;;;;;;4402722;32;20497;-76
2022/12/17 14:42:44;;;;;;;2.17;1.67;;;-1.70;99.90;;;;;;4390134;32;20118;-78
2022/12/17 14:44:31;;;;;;;2.47;1.08;;;-1.80;99.90;;;;;;4377513;32;20172;-78
2022/12/17 14:47:36;;;;;;;1.17;1.12;;;-1.70;99.90;;;;;;4399389;32;20576;-76
2022/12/17 14:50:13;;;;;;;2.97;1.58;;;-1.60;99.90;;;;;;4385590;32;20065;-76
2022/12/17 14:52:42;;;;;;;3.90;1.23;;;-1.60;99.90;;;;;;4403801;32;20443;-75
2022/12/17 14:55:27;;;;;;;0.98;0.88;;;-1.70;99.90;;;;;;4401384;32;20051;-76
2022/12/17 14:58:05;;;;;;;0.73;0.73;;;-1.80;99.90;;;;;;4396804;32;20101;-79
2022/12/17 15:00:30;;;;;;;1.27;1.12;;;-1.80;99.90;;;;;;4367250;32;20094;-76
2022/12/17 15:02:56;;;;;;;1.60;1.37;;;-1.70;99.90;;;;;;4392636;32;20102;-76
2022/12/17 15:05:21;;;;;;;2.20;1.80;;;-1.80;99.90;;;;;;4398581;32;20098;-76
2022/12/17 15:07:47;;;;;;;0.60;0.60;;;-1.90;99.90;;;;;;4399658;32;20514;-75
2022/12/17 15:10:18;;;;;;;1.58;1.48;;;-1.90;99.90;;;;;;4395479;32;20097;-76
2022/12/17 15:12:44;;;;;;;18.05;3.08;;;-2.00;99.90;;;;;;4388256;32;20583;-79
2022/12/17 15:15:12;;;;;;;1.45;1.35;;;-1.90;99.90;;;;;;4390038;32;20148;-76
2022/12/17 15:17:38;;;;;;;1.58;1.48;;;-1.80;99.90;;;;;;4402189;32;20089;-76
2022/12/17 15:20:04;;;;;;;4.87;2.85;;;-1.90;99.90;;;;;;4399044;32;20244;-76
2022/12/17 15:22:29;;;;;;;1.65;1.55;;;-1.90;99.90;;;;;;4402286;32;20117;-77
2022/12/17 15:24:55;;;;;;;2.62;1.95;;;-2.00;99.90;;;;;;4402324;32;20117;-76
2022/12/17 15:27:20;;;;;;;1.60;1.45;;;-2.00;99.90;;;;;;4401308;32;20145;-79
2022/12/17 15:29:47;;;;;;;0.60;0.60;;;-1.90;99.90;;;;;;4385288;32;20390;-79
2022/12/17 15:32:18;;;;;;;1.80;1.70;;;-1.90;99.90;;;;;;4387334;32;20066;-76
2022/12/17 15:34:44;;;;;;;1.12;1.02;;;-2.00;99.90;;;;;;4390409;32;20138;-77
2022/12/17 15:37:09;;;;;;;1.95;1.08;;;-2.00;99.90;;;;;;4384408;32;20202;-78
2022/12/17 15:39:35;;;;;;;2.22;1.80;;;-2.00;99.90;;;;;;4399352;32;20065;-76
2022/12/17 15:44:45;;;;;;;6.03;1.95;;;-1.90;99.90;;;;;;4374536;32;20098;-76
2022/12/17 15:47:11;;;;;;;4.00;2.87;;;-1.90;99.90;;;;;;4403007;32;20069;-77
2022/12/17 15:49:36;;;;;;;2.45;2.25;;;-1.90;99.90;;;;;;4399689;32;20062;-76
2022/12/17 15:52:02;;;;;;;1.52;1.42;;;-2.00;99.90;;;;;;4400187;32;20074;-76
2022/12/17 15:54:27;;;;;;;5.68;1.73;;;-2.10;99.90;;;;;;4399845;32;20062;-76
2022/12/17 15:56:54;;;;;;;0.65;0.65;;;-2.10;99.90;;;;;;4404514;32;20065;-77
2022/12/17 15:59:20;;;;;;;3.45;1.95;;;-2.10;99.90;;;;;;4402030;32;20078;-76
2022/12/17 16:01:45;;;;;;;1.85;1.02;;;-2.30;99.90;;;;;;4399166;32;20280;-77
2022/12/17 16:04:11;;;;;;;0.80;0.80;;;-2.20;99.90;;;;;;4397203;32;20074;-79
2022/12/17 16:06:36;;;;;;;1.90;1.65;;;-2.20;99.90;;;;;;4381924;32;20379;-77
2022/12/17 16:09:02;;;;;;;1.45;0.93;;;-2.20;99.90;;;;;;4394495;32;20058;-77
2022/12/17 16:11:27;;;;;;;4.53;2.03;;;-2.30;99.90;;;;;;4390095;32;21232;-79
2022/12/17 16:13:54;;;;;;;2.70;1.20;;;-2.30;99.90;;;;;;4384202;32;20069;-76
2022/12/17 16:16:20;;;;;;;2.55;1.95;;;-2.30;99.90;;;;;;4398987;32;20137;-76
2022/12/17 16:18:45;;;;;;;5.12;2.87;;;-2.30;99.90;;;;;;4401246;32;20086;-75
2022/12/17 16:21:12;;;;;;;2.10;1.10;;;-2.20;99.90;;;;;;4399594;32;20149;-75
2022/12/17 16:23:38;;;;;;;0.82;0.82;;;-2.20;99.90;;;;;;4401912;32;20061;-76
2022/12/17 16:26:05;;;;;;;1.15;1.12;;;-2.20;99.90;;;;;;4402386;32;20161;-76
2022/12/17 16:28:31;;;;;;;1.45;1.10;;;-2.10;99.90;;;;;;4399695;32;20594;-75
2022/12/17 16:31:05;;;;;;;3.12;1.62;;;-2.00;99.90;;;;;;4403859;32;20094;-76
2022/12/17 16:33:32;;;;;;;4.65;1.62;;;-2.00;99.90;;;;;;4397348;32;20418;-78
2022/12/17 16:35:58;;;;;;;1.05;1.05;;;-2.30;99.90;;;;;;4378949;32;20233;-78
2022/12/17 16:38:23;;;;;;;2.05;1.85;;;-2.40;99.90;;;;;;4389797;32;20406;-77
2022/12/17 16:40:56;;;;;;;2.10;1.90;;;-2.50;99.90;;;;;;4391161;32;20122;-77
2022/12/17 16:43:21;;;;;;;1.40;1.30;;;-2.40;99.90;;;;;;4387955;32;20082;-77
2022/12/17 16:45:51;;;;;;;5.97;1.95;;;-2.30;99.90;;;;;;4395691;32;20082;-76
2022/12/17 16:48:18;;;;;;;0.52;0.52;;;-2.30;99.90;;;;;;4399890;32;20078;-77
2022/12/17 16:50:44;;;;;;;1.45;1.35;;;-2.30;99.90;;;;;;4400453;32;20467;-75
2022/12/17 16:53:10;;;;;;;2.53;1.42;;;-2.40;99.90;;;;;;4402010;32;20057;-76
2022/12/17 16:55:40;;;;;;;3.25;1.20;;;-2.40;99.90;;;;;;4401710;32;20247;-77
2022/12/17 16:58:08;;;;;;;1.15;1.15;;;-2.40;99.90;;;;;;4397741;32;20471;-78
2022/12/17 17:00:34;;;;;;;1.40;1.30;;;-2.40;99.90;;;;;;4401441;32;20140;-77
2022/12/17 17:02:59;;;;;;;0.70;0.70;;;-2.40;99.90;;;;;;4401650;32;20355;-77
2022/12/17 17:05:25;;;;;;;1.15;1.10;;;-2.50;99.90;;;;;;4385020;32;20083;-76
2022/12/17 17:07:51;;;;;;;0.95;0.95;;;-2.50;99.90;;;;;;4384206;32;20081;-76
2022/12/17 17:10:17;;;;;;;1.40;1.12;;;-2.40;99.90;;;;;;4394662;32;20118;-77
2022/12/17 17:12:43;;;;;;;1.12;1.05;;;-2.30;99.90;;;;;;4387873;32;20131;-78
2022/12/17 17:15:09;;;;;;;0.75;0.75;;;-2.40;99.90;;;;;;4393771;32;20502;-76
2022/12/17 17:17:34;;;;;;;1.58;1.42;;;-2.50;99.90;;;;;;4401691;32;20065;-76
2022/12/17 17:19:59;;;;;;;2.90;1.95;;;-2.60;99.90;;;;;;4402294;32;20069;-76
2022/12/17 17:22:26;;;;;;;0.55;0.55;;;-2.60;99.90;;;;;;4396703;32;20164;-77
2022/12/17 17:24:51;;;;;;;2.60;1.27;;;-2.60;99.90;;;;;;4398889;32;20455;-76
2022/12/17 17:27:17;;;;;;;0.73;0.73;;;-2.60;99.90;;;;;;4400903;32;20061;-76
2022/12/17 17:29:42;;;;;;;1.12;1.12;;;-2.60;99.90;;;;;;4401010;32;20073;-76
2022/12/17 17:32:08;;;;;;;0.80;0.80;;;-2.50;99.90;;;;;;4399890;32;20168;-76
2022/12/17 17:34:33;;;;;;;0.50;0.50;;;-2.40;99.90;;;;;;4392385;32;20094;-79
2022/12/17 17:36:59;;;;;;;1.60;1.48;;;-2.50;99.90;;;;;;4382677;32;20109;-79
2022/12/17 17:39:31;;;;;;;1.25;1.25;;;-2.70;99.90;;;;;;4398237;32;20415;-77
2022/12/17 17:41:57;;;;;;;0.60;0.60;;;-2.70;99.90;;;;;;4387652;32;20297;-77
2022/12/17 17:44:23;;;;;;;2.58;1.15;;;-2.70;99.90;;;;;;4388003;32;20097;-76
2022/12/17 17:46:48;;;;;;;0.98;0.70;;;-2.70;99.90;;;;;;4401716;32;20125;-76
2022/12/17 17:49:14;;;;;;;0.60;0.60;;;-2.70;99.90;;;;;;4404341;32;20181;-78
2022/12/17 17:51:42;;;;;;;0.60;0.60;;;-2.80;99.90;;;;;;4404831;32;20098;-78
2022/12/17 17:54:08;;;;;;;1.00;1.00;;;-2.80;99.90;;;;;;4402613;32;20089;-76
2022/12/17 17:56:37;;;;;;;0.82;0.82;;;-2.90;99.90;;;;;;4407958;32;20153;-77
2022/12/17 17:59:07;;;;;;;0.73;0.73;;;-2.80;99.90;;;;;;4404273;32;20105;-76
2022/12/17 18:01:37;;;;;;;0.70;0.70;;;-2.80;99.90;;;;;;4407635;32;20057;-77
2022/12/17 18:04:04;;;;;;;0.55;0.55;;;-2.70;99.90;;;;;;4399580;32;20242;-77
2022/12/17 18:06:29;;;;;;;1.00;1.00;;;-2.70;99.90;;;;;;4386594;32;20192;-75
2022/12/17 18:08:56;;;;;;;0.98;0.98;;;-2.90;99.90;;;;;;4397242;32;20069;-76
2022/12/17 18:11:25;;;;;;;4.43;1.87;;;-2.90;99.90;;;;;;4395814;32;20110;-79
2022/12/17 18:13:54;;;;;;;0.50;0.50;;;-2.90;99.90;;;;;;4393653;32;20081;-78
2022/12/17 18:16:24;;;;;;;0.40;0.40;;;-2.90;99.90;;;;;;4404265;32;20073;-77
2022/12/17 18:18:51;;;;;;;0.60;0.60;;;-2.80;99.90;;;;;;4408127;32;20077;-76
2022/12/17 18:21:18;;;;;;;1.33;1.27;;;-2.90;99.90;;;;;;4406935;32;20085;-76
2022/12/17 18:23:45;;;;;;;1.25;1.15;;;-2.90;99.90;;;;;;4405204;32;20538;-78
2022/12/17 18:26:14;;;;;;;0.50;0.50;;;-2.90;99.90;;;;;;4405601;32;20086;-78
2022/12/17 18:28:40;;;;;;;0.68;0.68;;;-2.90;99.90;;;;;;4405207;32;20123;-75
2022/12/17 18:31:08;;;;;;;1.50;1.40;;;-2.80;99.90;;;;;;4404923;32;20409;-76
2022/12/17 18:33:35;;;;;;;1.70;0.95;;;-2.90;99.90;;;;;;4402332;32;20565;-77
2022/12/17 18:36:09;;;;;;;3.45;2.92;;;-2.90;99.90;;;;;;4386675;32;20540;-78
2022/12/17 18:38:34;;;;;;;0.52;0.52;;;-3.00;99.90;;;;;;4395240;32;20307;-76
2022/12/17 18:43:27;;;;;;;2.97;2.65;;;-3.00;99.90;;;;;;4396962;32;20066;-78
2022/12/17 18:44:00;;;;;;;3.33;1.70;;;-2.90;99.90;;;;;;4382061;32;20101;-76
2022/12/17 18:46:27;;;;;;;0.62;0.62;;;-3.00;99.90;;;;;;4403759;32;20081;-76
2022/12/17 18:48:56;;;;;;;1.55;1.10;;;-3.10;99.90;;;;;;4401828;32;20078;-75
2022/12/17 18:51:21;;;;;;;0.73;0.73;;;-3.30;99.90;;;;;;4402614;32;20117;-77
2022/12/17 18:53:48;;;;;;;0.80;0.80;;;-3.40;99.90;;;;;;4403001;32;20081;-76
2022/12/17 18:56:14;;;;;;;0.60;0.60;;;-3.40;99.90;;;;;;4406427;32;20077;-76
2022/12/17 18:58:39;;;;;;;0.43;0.43;;;-3.30;99.90;;;;;;4403552;32;20086;-76
2022/12/17 19:01:15;;;;;;;1.35;1.25;;;-3.20;99.90;;;;;;4402498;32;20110;-76
2022/12/17 19:03:41;;;;;;;3.40;2.47;;;-3.40;99.90;;;;;;4402612;32;20514;-79
2022/12/17 19:06:07;;;;;;;0.90;0.90;;;-3.30;99.90;;;;;;4388727;32;20090;-76
2022/12/17 19:08:35;;;;;;;1.10;1.10;;;-3.30;99.90;;;;;;4393440;32;20557;-76
2022/12/17 19:11:05;;;;;;;0.70;0.70;;;-3.30;99.90;;;;;;4398154;32;20062;-77
2022/12/17 19:13:32;;;;;;;0.50;0.50;;;-3.20;99.90;;;;;;4391094;32;20482;-76
2022/12/17 19:16:03;;;;;;;1.60;1.50;;;-3.20;99.90;;;;;;4399466;32;20066;-77
2022/12/17 19:18:31;;;;;;;0.50;0.50;;;-3.10;99.90;;;;;;4400572;32;21123;-77
2022/12/17 19:20:57;;;;;;;0.52;0.52;;;-3.30;99.90;;;;;;4405858;32;20521;-80
2022/12/17 19:23:23;;;;;;;0.70;0.70;;;-3.30;99.90;;;;;;4400773;32;20101;-76
2022/12/17 19:25:48;;;;;;;1.55;1.45;;;-3.30;99.90;;;;;;4404932;32;21140;-76
2022/12/17 19:28:13;;;;;;;1.40;1.30;;;-3.30;99.90;;;;;;4404479;32;20564;-77
2022/12/17 19:30:39;;;;;;;0.60;0.60;;;-3.30;99.90;;;;;;4401921;32;21509;-76
2022/12/17 19:33:04;;;;;;;0.90;0.90;;;-3.40;99.90;;;;;;4401783;32;20558;-78
2022/12/17 19:35:30;;;;;;;0.50;0.50;;;-3.30;99.90;;;;;;4389204;32;20081;-76
2022/12/17 19:37:56;;;;;;;1.85;0.90;;;-3.30;99.90;;;;;;4389174;32;20164;-76
2022/12/17 19:40:21;;;;;;;0.70;0.70;;;-3.20;99.90;;;;;;4396903;32;20153;-79
2022/12/17 19:42:46;;;;;;;5.47;1.92;;;-3.20;99.90;;;;;;4392759;32;20571;-77
2022/12/17 19:45:12;;;;;;;4.00;2.17;;;-3.20;99.90;;;;;;4395360;32;20078;-76
2022/12/17 19:47:37;;;;;;;0.60;0.60;;;-3.40;99.90;;;;;;4402620;32;20081;-77
2022/12/17 19:50:04;;;;;;;1.20;1.12;;;-3.40;99.90;;;;;;4402578;32;21126;-76
2022/12/17 19:52:29;;;;;;;0.50;0.50;;;-3.50;99.90;;;;;;4402810;32;20562;-76
2022/12/17 19:54:55;;;;;;;1.12;1.08;;;-3.60;99.90;;;;;;4403627;32;20092;-77
2022/12/17 19:57:20;;;;;;;1.17;1.17;;;-3.50;99.90;;;;;;4401336;32;20121;-77
2022/12/17 19:59:46;;;;;;;0.75;0.75;;;-3.40;99.90;;;;;;4401919;32;20129;-76
2022/12/17 20:02:14;;;;;;;2.17;1.55;;;-3.40;99.90;;;;;;4403089;32;20103;-76
2022/12/17 20:04:39;;;;;;;1.17;1.02;;;-3.60;99.90;;;;;;4392147;32;20077;-76
2022/12/17 20:07:07;;;;;;;0.50;0.50;;;-3.60;99.90;;;;;;4387749;32;20081;-77
2022/12/17 20:09:32;;;;;;;0.47;0.47;;;-3.40;99.90;;;;;;4396368;32;20654;-80
2022/12/17 20:11:58;;;;;;;0.80;0.80;;;-3.60;99.90;;;;;;4390750;32;20162;-77
2022/12/17 20:14:25;;;;;;;0.50;0.50;;;-3.50;99.90;;;;;;4391203;32;20597;-78
2022/12/17 20:16:56;;;;;;;0.95;0.95;;;-3.50;99.90;;;;;;4404994;32;20435;-78
2022/12/17 20:19:24;;;;;;;0.60;0.60;;;-3.50;99.90;;;;;;4401396;32;20089;-77
2022/12/17 20:21:52;;;;;;;3.20;0.75;;;-3.50;99.90;;;;;;4401317;32;20490;-75
2022/12/17 20:24:18;;;;;;;1.05;1.05;;;-3.50;99.90;;;;;;4388748;32;20513;-78
2022/12/17 20:26:47;;;;;;;0.62;0.62;;;-3.40;99.90;;;;;;4387428;32;20106;-79
2022/12/17 20:29:13;;;;;;;0.93;0.93;;;-3.40;99.90;;;;;;4400092;32;20696;-75
2022/12/17 20:31:38;;;;;;;1.25;1.15;;;-3.50;99.90;;;;;;4401613;32;20089;-76
2022/12/17 20:34:06;;;;;;;0.90;0.90;;;-3.50;99.90;;;;;;4399059;32;20138;-76
2022/12/17 20:36:33;;;;;;;1.73;1.62;;;-3.50;99.90;;;;;;4402462;32;21174;-76
2022/12/17 20:38:59;;;;;;;1.83;1.73;;;-3.60;99.90;;;;;;4399794;32;20070;-75
2022/12/17 20:41:30;;;;;;;1.30;0.90;;;-3.60;99.90;;;;;;4391990;32;20085;-78
2022/12/17 20:43:56;;;;;;;0.80;0.80;;;-3.50;99.90;;;;;;4388146;32;20097;-79
2022/12/17 20:46:23;;;;;;;0.70;0.70;;;-3.50;99.90;;;;;;4403022;32;20078;-77
2022/12/17 20:48:50;;;;;;;1.35;1.25;;;-3.40;99.90;;;;;;4400380;32;20102;-77
2022/12/17 20:51:19;;;;;;;0.95;0.95;;;-3.30;99.90;;;;;;4403315;32;20101;-76
2022/12/17 20:53:46;;;;;;;1.80;1.70;;;-3.40;99.90;;;;;;4395716;32;20070;-79
2022/12/17 20:56:14;;;;;;;0.65;0.65;;;-3.60;99.90;;;;;;4389123;32;20299;-78
2022/12/17 20:58:41;;;;;;;2.80;2.47;;;-3.70;99.90;;;;;;4397273;32;20443;-76
2022/12/17 21:01:14;;;;;;;0.62;0.62;;;-3.80;99.90;;;;;;4401533;32;20086;-77
2022/12/17 21:03:40;;;;;;;0.65;0.65;;;-3.90;99.90;;;;;;4402477;32;20074;-77
2022/12/17 21:06:11;;;;;;;4.68;1.73;;;-3.80;99.90;;;;;;4402336;32;20481;-77
2022/12/17 21:08:38;;;;;;;1.08;1.05;;;-3.80;99.90;;;;;;4401225;32;20466;-76
2022/12/17 21:11:05;;;;;;;0.50;0.50;;;-3.90;99.90;;;;;;4393674;32;20062;-77
2022/12/17 21:13:31;;;;;;;1.80;1.67;;;-3.80;99.90;;;;;;4391888;32;20097;-80
2022/12/17 21:15:59;;;;;;;0.70;0.70;;;-3.70;99.90;;;;;;4388339;32;20122;-76
2022/12/17 21:18:27;;;;;;;0.60;0.60;;;-3.70;99.90;;;;;;4402739;32;20079;-76
2022/12/17 21:20:54;;;;;;;0.73;0.73;;;-3.80;99.90;;;;;;4403046;32;20431;-77
2022/12/17 21:23:20;;;;;;;0.93;0.93;;;-3.80;99.90;;;;;;4394501;32;20098;-78
2022/12/17 21:25:46;;;;;;;0.93;0.93;;;-4.00;99.90;;;;;;4382731;32;20101;-79
2022/12/17 21:28:12;;;;;;;0.60;0.60;;;-4.10;99.90;;;;;;4393442;32;20069;-77
2022/12/17 21:30:38;;;;;;;1.17;1.12;;;-4.20;99.90;;;;;;4402054;32;20081;-77
2022/12/17 21:33:04;;;;;;;1.30;1.20;;;-4.40;99.90;;;;;;4397758;32;20089;-77
2022/12/17 21:35:29;;;;;;;0.50;0.50;;;-4.30;99.90;;;;;;4399015;32;20097;-76
2022/12/17 21:37:55;;;;;;;0.40;0.40;;;-4.20;99.90;;;;;;4400615;32;20120;-78
2022/12/17 21:40:20;;;;;;;1.60;1.50;;;-4.30;99.90;;;;;;4398260;32;20107;-82
2022/12/17 21:43:01;;;;;;;1.05;1.05;;;-4.50;99.90;;;;;;4390874;32;20151;-77
2022/12/17 21:45:36;;;;;;;0.50;0.50;;;-4.30;99.90;;;;;;4395504;32;20073;-76
2022/12/17 21:48:04;;;;;;;0.45;0.45;;;-4.20;99.90;;;;;;4400038;32;20514;-75
2022/12/17 21:50:29;;;;;;;0.82;0.82;;;-4.20;99.90;;;;;;4399226;32;20136;-79
2022/12/17 21:52:55;;;;;;;0.60;0.60;;;-4.20;99.90;;;;;;4398009;32;20532;-81
2022/12/17 21:55:20;;;;;;;0.60;0.60;;;-4.10;99.90;;;;;;4383157;32;20113;-78
2022/12/17 21:57:46;;;;;;;0.75;0.75;;;-4.00;99.90;;;;;;4393253;32;20128;-77
2022/12/17 22:00:12;;;;;;;2.35;2.15;;;-3.90;99.90;;;;;;4400937;32;20070;-76
2022/12/17 22:02:39;;;;;;;1.10;1.08;;;-3.90;99.90;;;;;;4402721;32;20077;-77
2022/12/17 22:05:05;;;;;;;0.40;0.40;;;-3.90;99.90;;;;;;4398857;32;20580;-76
2022/12/17 22:07:30;;;;;;;1.10;1.05;;;-4.00;99.90;;;;;;4402886;32;20113;-76
2022/12/17 22:09:56;;;;;;;0.88;0.88;;;-4.20;99.90;;;;;;4397766;32;20098;-76
2022/12/17 22:14:21;;;;;;;0.50;0.50;;;-4.20;99.90;;;;;;4388641;32;20093;-77
2022/12/17 22:15:09;;;;;;;1.05;1.05;;;-4.40;99.90;;;;;;4380335;32;20102;-78
2022/12/17 22:17:36;;;;;;;10.43;2.92;;;-4.20;99.90;;;;;;4400335;32;20133;-77
2022/12/17 22:20:03;;;;;;;2.55;1.83;;;-4.20;99.90;;;;;;4399901;32;20087;-77
2022/12/17 22:22:28;;;;;;;0.75;0.75;;;-4.20;99.90;;;;;;4401383;32;20149;-79
2022/12/17 22:24:54;;;;;;;0.50;0.50;;;-4.20;99.90;;;;;;4387569;32;20402;-80
2022/12/17 22:27:19;;;;;;;0.60;0.60;;;-4.10;99.90;;;;;;4388945;32;20095;-77
2022/12/17 22:33:02;;;;;;;2.05;1.67;;;-4.20;99.90;;;;;;4387368;32;20188;-78
2022/12/17 22:35:16;;;;;;;1.05;1.05;;;-4.20;99.90;;;;;;4390813;32;20139;-76
2022/12/17 22:37:41;;;;;;;0.40;0.40;;;-4.30;99.90;;;;;;4401708;32;20483;-77
2022/12/17 22:40:07;;;;;;;3.45;1.65;;;-4.50;99.90;;;;;;4396686;32;20086;-79
2022/12/17 22:43:33;;;;;;;0.70;0.70;;;-4.50;99.90;;;;;;4387845;32;20700;-78
2022/12/17 22:45:18;;;;;;;0.65;0.65;;;-4.50;99.90;;;;;;4384994;32;20390;-77
2022/12/17 22:47:44;;;;;;;0.70;0.70;;;-4.60;99.90;;;;;;4401723;32;20153;-77
2022/12/17 22:50:09;;;;;;;0.73;0.73;;;-4.70;99.90;;;;;;4403752;32;20541;-76
2022/12/17 22:52:35;;;;;;;1.00;1.00;;;-4.80;99.90;;;;;;4403396;32;20081;-77
2022/12/17 22:55:00;;;;;;;1.17;1.02;;;-4.80;99.90;;;;;;4384696;32;20073;-80
2022/12/17 22:57:26;;;;;;;0.55;0.55;;;-4.70;99.90;;;;;;4395582;32;20144;-78
2022/12/17 22:59:52;;;;;;;8.30;1.77;;;-4.60;99.90;;;;;;4402604;32;21305;-76
2022/12/17 23:02:18;;;;;;;1.45;1.37;;;-4.60;99.90;;;;;;4401724;32;20375;-78
2022/12/17 23:04:44;;;;;;;0.50;0.50;;;-4.70;99.90;;;;;;4404257;32;20065;-77
2022/12/17 23:07:12;;;;;;;1.30;1.20;;;-4.70;99.90;;;;;;4403227;32;20101;-77
2022/12/17 23:09:37;;;;;;;3.12;2.12;;;-4.50;99.90;;;;;;4401798;32;20148;-78
2022/12/17 23:12:49;;;;;;;0.50;0.50;;;-4.50;99.90;;;;;;4391005;32;20241;-78
2022/12/17 23:14:49;;;;;;;5.60;2.58;;;-4.50;99.90;;;;;;4383470;32;20679;-77
2022/12/17 23:17:15;;;;;;;1.55;1.45;;;-4.60;99.90;;;;;;4401657;32;20404;-77
2022/12/17 23:19:42;;;;;;;1.17;1.15;;;-4.50;99.90;;;;;;4402181;32;20087;-76
2022/12/17 23:22:08;;;;;;;1.80;1.48;;;-4.60;99.90;;;;;;4401446;32;20079;-77
2022/12/17 23:24:33;;;;;;;0.98;0.98;;;-4.70;99.90;;;;;;4389197;32;20089;-76
2022/12/17 23:26:59;;;;;;;3.12;2.15;;;-4.80;99.90;;;;;;4388040;32;20074;-78
2022/12/17 23:29:24;;;;;;;7.22;1.50;;;-4.70;99.90;;;;;;4401366;32;20122;-75
2022/12/17 23:31:50;;;;;;;10.50;1.55;;;-4.70;99.90;;;;;;4400465;32;20129;-76
2022/12/17 23:34:16;;;;;;;1.45;1.35;;;-4.80;99.90;;;;;;4399615;32;20498;-76
2022/12/17 23:36:44;;;;;;;0.80;0.80;;;-4.80;99.90;;;;;;4401502;32;20101;-75
2022/12/17 23:39:09;;;;;;;0.68;0.68;;;-4.90;99.90;;;;;;4400267;32;20439;-77
2022/12/17 23:41:35;;;;;;;0.68;0.68;;;-4.80;99.90;;;;;;4392114;32;20081;-76
2022/12/17 23:44:00;;;;;;;1.15;1.12;;;-4.80;99.90;;;;;;4390071;32;20913;-77
2022/12/17 23:46:28;;;;;;;0.82;0.82;;;-4.90;99.90;;;;;;4403209;32;20263;-76
2022/12/17 23:48:55;;;;;;;2.45;2.25;;;-4.80;99.90;;;;;;4399359;32;21540;-77
2022/12/17 23:51:22;;;;;;;0.50;0.50;;;-4.80;99.90;;;;;;4398905;32;20395;-75
2022/12/17 23:53:48;;;;;;;1.27;1.00;;;-4.80;99.90;;;;;;4393470;32;20089;-77
2022/12/17 23:56:18;;;;;;;0.75;0.75;;;-4.80;99.90;;;;;;4385140;32;20473;-79
2022/12/17 23:58:45;;;;;;;2.15;1.75;;;-4.90;99.90;;;;;;4400342;32;20174;-75
